Flight Number: EUR1364 Duration: 2:15
Departure: Gatwick Airport (EGKK) at 08:30 Distance: 740 Nm
Arrival: Ibiza Airport (LEIB) at 10:45 Equipment: B737

Weather Information
404 Not Found

Not Found

The requested URL /data/observations/metar/decoded/EGKK.TXT was not found on this server.


Sunrise: 04:04 Sunset: 19:50 (UTC)

Ibiza / Es Codola, Spain (LEIB) 38-52N 001-23E 12M May 22, 2018 - 03:30 PM EDT / 2018.05.22 1930 UTC
Wind: from the SW (230 degrees) at 6 MPH (5 KT):0
Visibility: greater than 7 mile(s):0
Sky conditions: mostly clear Temperature: 66 F (19 C) Dew Point: 62 F (17 C) Relative Humidity: 88% Pressure (altimeter): 29.97 in. Hg (1015 hPa)
ob: LEIB 221930Z 23005KT 9999 FEW010 19/17 Q1015 NOSIG cycle: 19
Sunrise: 04:39 Sunset: 19:03 (UTC)

TAF:2018/05/22 15:31 TAF LEIB 221400Z 2215/2315 18004KT 9999 FEW020 TX23/2312Z TN15/2306Z BECMG 2310/2312 10009KT

Previous Pireps for this route
Date Aircraft Flight time Fuel used Landing rate On time
2013-05-16B73702.1612120-232Yes
2013-06-18B73702.2612557-358Yes
2014-12-03B73701.5910751-185Yes
2015-02-26B73701.5711056-269Yes
(pireps marked green are flown by you)

Route map